sensor_id;sensor_type;location;lat;lon;timestamp;P1;durP1;ratioP1;P2;durP2;ratioP2
78382;SDS011;67668;52.294;4.692;2024-02-15T00:02:20;11.23;;;1.95;;
78382;SDS011;67668;52.294;4.692;2024-02-15T00:04:45;11.52;;;2.08;;
78382;SDS011;67668;52.294;4.692;2024-02-15T00:07:11;5.30;;;2.37;;
78382;SDS011;67668;52.294;4.692;2024-02-15T00:09:36;7.53;;;1.63;;
78382;SDS011;67668;52.294;4.692;2024-02-15T00:12:02;14.60;;;3.17;;
78382;SDS011;67668;52.294;4.692;2024-02-15T00:14:27;15.98;;;2.25;;
78382;SDS011;67668;52.294;4.692;2024-02-15T00:16:53;13.93;;;2.67;;
78382;SDS011;67668;52.294;4.692;2024-02-15T00:19:20;10.25;;;2.38;;
78382;SDS011;67668;52.294;4.692;2024-02-15T00:21:46;12.57;;;3.08;;
78382;SDS011;67668;52.294;4.692;2024-02-15T00:24:12;14.35;;;3.20;;
78382;SDS011;67668;52.294;4.692;2024-02-15T00:26:37;17.95;;;3.83;;
78382;SDS011;67668;52.294;4.692;2024-02-15T00:29:03;11.40;;;2.95;;
78382;SDS011;67668;52.294;4.692;2024-02-15T00:31:29;16.63;;;2.78;;
78382;SDS011;67668;52.294;4.692;2024-02-15T00:33:54;9.30;;;2.85;;
78382;SDS011;67668;52.294;4.692;2024-02-15T00:36:20;11.65;;;2.55;;
78382;SDS011;67668;52.294;4.692;2024-02-15T00:38:45;9.88;;;2.90;;
78382;SDS011;67668;52.294;4.692;2024-02-15T00:41:11;5.20;;;2.23;;
78382;SDS011;67668;52.294;4.692;2024-02-15T00:43:36;13.30;;;3.25;;
78382;SDS011;67668;52.294;4.692;2024-02-15T00:46:02;22.50;;;3.63;;
78382;SDS011;67668;52.294;4.692;2024-02-15T00:48:28;13.50;;;3.17;;
78382;SDS011;67668;52.294;4.692;2024-02-15T00:50:55;13.00;;;2.97;;
78382;SDS011;67668;52.294;4.692;2024-02-15T00:53:24;9.02;;;3.05;;
78382;SDS011;67668;52.294;4.692;2024-02-15T00:55:49;11.27;;;2.90;;
78382;SDS011;67668;52.294;4.692;2024-02-15T00:58:14;11.85;;;3.72;;
78382;SDS011;67668;52.294;4.692;2024-02-15T01:00:40;11.32;;;2.78;;
78382;SDS011;67668;52.294;4.692;2024-02-15T01:03:05;13.50;;;2.80;;
78382;SDS011;67668;52.294;4.692;2024-02-15T01:05:30;6.70;;;2.27;;
78382;SDS011;67668;52.294;4.692;2024-02-15T01:07:56;10.93;;;2.77;;
78382;SDS011;67668;52.294;4.692;2024-02-15T01:10:22;7.88;;;2.75;;
78382;SDS011;67668;52.294;4.692;2024-02-15T01:12:49;7.55;;;2.78;;
78382;SDS011;67668;52.294;4.692;2024-02-15T01:15:15;10.30;;;3.13;;
78382;SDS011;67668;52.294;4.692;2024-02-15T01:17:45;6.65;;;2.53;;
78382;SDS011;67668;52.294;4.692;2024-02-15T01:20:11;12.93;;;3.13;;
78382;SDS011;67668;52.294;4.692;2024-02-15T01:22:36;8.00;;;3.60;;
78382;SDS011;67668;52.294;4.692;2024-02-15T01:25:02;6.23;;;3.33;;
78382;SDS011;67668;52.294;4.692;2024-02-15T01:27:28;10.70;;;3.92;;
78382;SDS011;67668;52.294;4.692;2024-02-15T01:29:58;6.75;;;3.67;;
78382;SDS011;67668;52.294;4.692;2024-02-15T01:32:23;10.65;;;4.13;;
78382;SDS011;67668;52.294;4.692;2024-02-15T01:34:49;8.65;;;3.97;;
78382;SDS011;67668;52.294;4.692;2024-02-15T01:37:16;10.18;;;4.95;;
78382;SDS011;67668;52.294;4.692;2024-02-15T01:39:42;12.60;;;5.40;;
78382;SDS011;67668;52.294;4.692;2024-02-15T01:42:07;13.55;;;5.38;;
78382;SDS011;67668;52.294;4.692;2024-02-15T01:44:33;10.43;;;4.95;;
78382;SDS011;67668;52.294;4.692;2024-02-15T01:46:58;11.87;;;4.90;;
78382;SDS011;67668;52.294;4.692;2024-02-15T01:49:26;11.82;;;5.40;;
78382;SDS011;67668;52.294;4.692;2024-02-15T01:51:53;12.90;;;5.63;;
78382;SDS011;67668;52.294;4.692;2024-02-15T01:54:22;12.48;;;4.88;;
78382;SDS011;67668;52.294;4.692;2024-02-15T01:56:48;9.07;;;4.97;;
78382;SDS011;67668;52.294;4.692;2024-02-15T01:59:17;17.05;;;5.70;;
78382;SDS011;67668;52.294;4.692;2024-02-15T02:01:43;12.40;;;6.32;;
78382;SDS011;67668;52.294;4.692;2024-02-15T02:04:09;14.98;;;7.53;;
78382;SDS011;67668;52.294;4.692;2024-02-15T02:06:36;19.10;;;6.53;;
78382;SDS011;67668;52.294;4.692;2024-02-15T02:09:02;10.60;;;5.88;;
78382;SDS011;67668;52.294;4.692;2024-02-15T02:11:28;12.20;;;6.20;;
78382;SDS011;67668;52.294;4.692;2024-02-15T02:13:54;14.05;;;6.45;;
78382;SDS011;67668;52.294;4.692;2024-02-15T02:16:27;14.23;;;6.65;;
78382;SDS011;67668;52.294;4.692;2024-02-15T02:18:54;11.68;;;6.28;;
78382;SDS011;67668;52.294;4.692;2024-02-15T02:21:21;16.25;;;6.97;;
78382;SDS011;67668;52.294;4.692;2024-02-15T02:23:48;13.35;;;6.13;;
78382;SDS011;67668;52.294;4.692;2024-02-15T02:26:19;12.20;;;5.88;;
78382;SDS011;67668;52.294;4.692;2024-02-15T02:28:46;12.00;;;5.85;;
78382;SDS011;67668;52.294;4.692;2024-02-15T02:31:12;11.43;;;5.38;;
78382;SDS011;67668;52.294;4.692;2024-02-15T02:33:37;11.35;;;6.25;;
78382;SDS011;67668;52.294;4.692;2024-02-15T02:36:03;11.87;;;5.70;;
78382;SDS011;67668;52.294;4.692;2024-02-15T02:38:28;10.88;;;5.85;;
78382;SDS011;67668;52.294;4.692;2024-02-15T02:40:54;15.07;;;6.30;;
78382;SDS011;67668;52.294;4.692;2024-02-15T02:43:19;10.70;;;5.10;;
78382;SDS011;67668;52.294;4.692;2024-02-15T02:45:44;14.67;;;5.47;;
78382;SDS011;67668;52.294;4.692;2024-02-15T02:48:10;8.65;;;4.35;;
78382;SDS011;67668;52.294;4.692;2024-02-15T02:50:36;11.73;;;5.38;;
78382;SDS011;67668;52.294;4.692;2024-02-15T02:53:02;11.77;;;5.45;;
78382;SDS011;67668;52.294;4.692;2024-02-15T02:55:28;11.55;;;5.45;;
78382;SDS011;67668;52.294;4.692;2024-02-15T02:57:53;13.00;;;5.07;;
78382;SDS011;67668;52.294;4.692;2024-02-15T03:00:20;13.52;;;4.85;;
78382;SDS011;67668;52.294;4.692;2024-02-15T03:02:46;13.07;;;5.10;;
78382;SDS011;67668;52.294;4.692;2024-02-15T03:05:12;9.45;;;4.60;;
78382;SDS011;67668;52.294;4.692;2024-02-15T03:07:38;12.48;;;5.03;;
78382;SDS011;67668;52.294;4.692;2024-02-15T03:10:07;12.88;;;5.20;;
78382;SDS011;67668;52.294;4.692;2024-02-15T03:12:34;7.85;;;4.60;;
78382;SDS011;67668;52.294;4.692;2024-02-15T03:15:03;11.07;;;4.63;;
78382;SDS011;67668;52.294;4.692;2024-02-15T03:17:29;13.75;;;4.78;;
78382;SDS011;67668;52.294;4.692;2024-02-15T03:19:56;12.88;;;4.53;;
78382;SDS011;67668;52.294;4.692;2024-02-15T03:22:22;13.15;;;4.63;;
78382;SDS011;67668;52.294;4.692;2024-02-15T03:24:49;9.02;;;4.40;;
78382;SDS011;67668;52.294;4.692;2024-02-15T03:27:15;11.03;;;4.60;;
78382;SDS011;67668;52.294;4.692;2024-02-15T03:29:40;7.87;;;4.23;;
78382;SDS011;67668;52.294;4.692;2024-02-15T03:32:06;12.27;;;4.40;;
78382;SDS011;67668;52.294;4.692;2024-02-15T03:34:31;9.32;;;3.95;;
78382;SDS011;67668;52.294;4.692;2024-02-15T03:36:57;10.13;;;4.75;;
78382;SDS011;67668;52.294;4.692;2024-02-15T03:39:23;12.52;;;4.25;;
78382;SDS011;67668;52.294;4.692;2024-02-15T03:41:49;8.60;;;4.15;;
78382;SDS011;67668;52.294;4.692;2024-02-15T03:44:16;9.68;;;4.78;;
78382;SDS011;67668;52.294;4.692;2024-02-15T03:46:43;9.65;;;4.22;;
78382;SDS011;67668;52.294;4.692;2024-02-15T03:49:15;13.23;;;4.57;;
78382;SDS011;67668;52.294;4.692;2024-02-15T03:51:41;10.23;;;4.18;;
78382;SDS011;67668;52.294;4.692;2024-02-15T03:54:10;10.63;;;4.32;;
78382;SDS011;67668;52.294;4.692;2024-02-15T03:56:35;9.57;;;4.32;;
78382;SDS011;67668;52.294;4.692;2024-02-15T03:59:02;10.52;;;4.03;;
78382;SDS011;67668;52.294;4.692;2024-02-15T04:01:29;9.88;;;4.10;;
78382;SDS011;67668;52.294;4.692;2024-02-15T04:03:58;11.55;;;4.30;;
78382;SDS011;67668;52.294;4.692;2024-02-15T04:06:24;9.13;;;4.68;;
78382;SDS011;67668;52.294;4.692;2024-02-15T04:08:52;12.38;;;5.28;;
78382;SDS011;67668;52.294;4.692;2024-02-15T04:11:18;13.23;;;5.13;;
78382;SDS011;67668;52.294;4.692;2024-02-15T04:13:44;9.95;;;4.82;;
78382;SDS011;67668;52.294;4.692;2024-02-15T04:16:10;10.77;;;4.20;;
78382;SDS011;67668;52.294;4.692;2024-02-15T04:18:35;13.80;;;5.03;;
78382;SDS011;67668;52.294;4.692;2024-02-15T04:21:01;10.38;;;4.75;;
78382;SDS011;67668;52.294;4.692;2024-02-15T04:23:27;14.98;;;5.40;;
78382;SDS011;67668;52.294;4.692;2024-02-15T04:25:52;12.57;;;5.65;;
78382;SDS011;67668;52.294;4.692;2024-02-15T04:28:19;10.25;;;4.95;;
78382;SDS011;67668;52.294;4.692;2024-02-15T04:30:45;11.18;;;5.30;;
78382;SDS011;67668;52.294;4.692;2024-02-15T04:33:12;9.20;;;5.43;;
78382;SDS011;67668;52.294;4.692;2024-02-15T04:35:40;18.63;;;5.93;;
78382;SDS011;67668;52.294;4.692;2024-02-15T04:38:05;10.10;;;6.33;;
78382;SDS011;67668;52.294;4.692;2024-02-15T04:40:33;16.05;;;6.65;;
78382;SDS011;67668;52.294;4.692;2024-02-15T04:42:58;10.13;;;6.55;;
78382;SDS011;67668;52.294;4.692;2024-02-15T04:45:24;12.40;;;6.40;;
78382;SDS011;67668;52.294;4.692;2024-02-15T04:47:49;14.68;;;6.85;;
78382;SDS011;67668;52.294;4.692;2024-02-15T04:50:17;13.45;;;7.22;;
78382;SDS011;67668;52.294;4.692;2024-02-15T04:52:43;13.25;;;7.03;;
78382;SDS011;67668;52.294;4.692;2024-02-15T04:55:10;8.98;;;6.18;;
78382;SDS011;67668;52.294;4.692;2024-02-15T04:57:36;13.23;;;6.55;;
78382;SDS011;67668;52.294;4.692;2024-02-15T05:00:02;10.57;;;6.30;;
78382;SDS011;67668;52.294;4.692;2024-02-15T05:02:37;11.27;;;6.55;;
78382;SDS011;67668;52.294;4.692;2024-02-15T05:05:06;10.85;;;6.45;;
78382;SDS011;67668;52.294;4.692;2024-02-15T05:07:33;11.10;;;6.25;;
78382;SDS011;67668;52.294;4.692;2024-02-15T05:09:59;9.25;;;6.43;;
78382;SDS011;67668;52.294;4.692;2024-02-15T05:12:27;5.70;;;3.97;;
78382;SDS011;67668;52.294;4.692;2024-02-15T05:14:52;11.17;;;4.67;;
78382;SDS011;67668;52.294;4.692;2024-02-15T05:17:18;10.15;;;5.68;;
78382;SDS011;67668;52.294;4.692;2024-02-15T05:19:43;9.20;;;6.15;;
78382;SDS011;67668;52.294;4.692;2024-02-15T05:22:10;7.78;;;5.80;;
78382;SDS011;67668;52.294;4.692;2024-02-15T05:24:36;10.32;;;5.47;;
78382;SDS011;67668;52.294;4.692;2024-02-15T05:27:03;16.75;;;5.97;;
78382;SDS011;67668;52.294;4.692;2024-02-15T05:29:29;12.98;;;5.53;;
78382;SDS011;67668;52.294;4.692;2024-02-15T05:31:58;7.05;;;5.90;;
78382;SDS011;67668;52.294;4.692;2024-02-15T05:34:24;11.55;;;5.30;;
78382;SDS011;67668;52.294;4.692;2024-02-15T05:36:50;8.97;;;6.43;;
78382;SDS011;67668;52.294;4.692;2024-02-15T05:39:16;12.27;;;6.45;;
78382;SDS011;67668;52.294;4.692;2024-02-15T05:41:45;8.10;;;6.30;;
78382;SDS011;67668;52.294;4.692;2024-02-15T05:44:10;11.82;;;6.85;;
78382;SDS011;67668;52.294;4.692;2024-02-15T05:46:36;12.17;;;7.17;;
78382;SDS011;67668;52.294;4.692;2024-02-15T05:49:05;11.15;;;7.18;;
78382;SDS011;67668;52.294;4.692;2024-02-15T05:51:30;10.93;;;6.95;;
78382;SDS011;67668;52.294;4.692;2024-02-15T05:53:59;9.05;;;6.40;;
78382;SDS011;67668;52.294;4.692;2024-02-15T05:56:24;11.73;;;7.20;;
78382;SDS011;67668;52.294;4.692;2024-02-15T05:58:51;16.27;;;6.97;;
78382;SDS011;67668;52.294;4.692;2024-02-15T06:01:16;11.85;;;6.88;;
78382;SDS011;67668;52.294;4.692;2024-02-15T06:03:42;13.30;;;6.83;;
78382;SDS011;67668;52.294;4.692;2024-02-15T06:06:09;10.40;;;7.35;;
78382;SDS011;67668;52.294;4.692;2024-02-15T06:08:36;11.65;;;7.47;;
78382;SDS011;67668;52.294;4.692;2024-02-15T06:11:02;10.48;;;6.97;;
78382;SDS011;67668;52.294;4.692;2024-02-15T06:13:29;15.98;;;7.00;;
78382;SDS011;67668;52.294;4.692;2024-02-15T06:15:54;10.73;;;7.47;;
78382;SDS011;67668;52.294;4.692;2024-02-15T06:18:23;16.48;;;7.90;;
78382;SDS011;67668;52.294;4.692;2024-02-15T06:20:56;16.92;;;8.45;;
78382;SDS011;67668;52.294;4.692;2024-02-15T06:23:22;18.00;;;7.45;;
78382;SDS011;67668;52.294;4.692;2024-02-15T06:25:50;13.55;;;7.75;;
78382;SDS011;67668;52.294;4.692;2024-02-15T06:28:18;15.75;;;7.88;;
78382;SDS011;67668;52.294;4.692;2024-02-15T06:31:02;12.98;;;6.88;;
78382;SDS011;67668;52.294;4.692;2024-02-15T06:33:46;13.50;;;8.18;;
78382;SDS011;67668;52.294;4.692;2024-02-15T06:36:30;17.33;;;9.40;;
78382;SDS011;67668;52.294;4.692;2024-02-15T06:39:14;12.60;;;7.38;;
78382;SDS011;67668;52.294;4.692;2024-02-15T06:41:58;16.20;;;7.72;;
78382;SDS011;67668;52.294;4.692;2024-02-15T06:44:23;14.97;;;7.40;;
78382;SDS011;67668;52.294;4.692;2024-02-15T06:46:49;14.38;;;8.13;;
78382;SDS011;67668;52.294;4.692;2024-02-15T06:49:15;14.93;;;7.57;;
78382;SDS011;67668;52.294;4.692;2024-02-15T06:51:41;11.52;;;7.53;;
78382;SDS011;67668;52.294;4.692;2024-02-15T06:54:07;13.82;;;8.00;;
78382;SDS011;67668;52.294;4.692;2024-02-15T06:56:35;14.35;;;8.10;;
78382;SDS011;67668;52.294;4.692;2024-02-15T06:59:02;15.40;;;7.43;;
78382;SDS011;67668;52.294;4.692;2024-02-15T07:01:28;14.52;;;7.63;;
78382;SDS011;67668;52.294;4.692;2024-02-15T07:03:53;10.40;;;6.20;;
78382;SDS011;67668;52.294;4.692;2024-02-15T07:06:18;7.50;;;5.53;;
78382;SDS011;67668;52.294;4.692;2024-02-15T07:08:44;9.50;;;6.13;;
78382;SDS011;67668;52.294;4.692;2024-02-15T07:11:09;7.63;;;5.13;;
78382;SDS011;67668;52.294;4.692;2024-02-15T07:13:37;9.97;;;6.23;;
78382;SDS011;67668;52.294;4.692;2024-02-15T07:16:06;11.70;;;6.15;;
78382;SDS011;67668;52.294;4.692;2024-02-15T07:18:32;7.00;;;5.30;;
78382;SDS011;67668;52.294;4.692;2024-02-15T07:20:58;9.27;;;5.75;;
78382;SDS011;67668;52.294;4.692;2024-02-15T07:23:26;11.10;;;5.57;;
78382;SDS011;67668;52.294;4.692;2024-02-15T07:25:51;7.32;;;4.80;;
78382;SDS011;67668;52.294;4.692;2024-02-15T07:28:18;9.93;;;5.53;;
78382;SDS011;67668;52.294;4.692;2024-02-15T07:30:45;8.00;;;5.03;;
78382;SDS011;67668;52.294;4.692;2024-02-15T07:33:13;6.35;;;4.70;;
78382;SDS011;67668;52.294;4.692;2024-02-15T07:35:41;6.93;;;4.78;;
78382;SDS011;67668;52.294;4.692;2024-02-15T07:38:08;8.02;;;5.53;;
78382;SDS011;67668;52.294;4.692;2024-02-15T07:40:33;7.43;;;5.07;;
78382;SDS011;67668;52.294;4.692;2024-02-15T07:42:58;9.57;;;4.83;;
78382;SDS011;67668;52.294;4.692;2024-02-15T07:45:24;6.72;;;3.70;;
78382;SDS011;67668;52.294;4.692;2024-02-15T07:47:49;6.57;;;4.33;;
78382;SDS011;67668;52.294;4.692;2024-02-15T07:50:18;6.23;;;4.83;;
78382;SDS011;67668;52.294;4.692;2024-02-15T07:52:46;8.93;;;4.65;;
78382;SDS011;67668;52.294;4.692;2024-02-15T07:55:13;8.80;;;4.57;;
78382;SDS011;67668;52.294;4.692;2024-02-15T07:57:38;7.10;;;4.57;;
78382;SDS011;67668;52.294;4.692;2024-02-15T08:00:04;7.17;;;4.70;;
78382;SDS011;67668;52.294;4.692;2024-02-15T08:02:36;9.77;;;5.20;;
78382;SDS011;67668;52.294;4.692;2024-02-15T08:05:05;10.07;;;5.53;;
78382;SDS011;67668;52.294;4.692;2024-02-15T08:07:35;7.35;;;4.32;;
78382;SDS011;67668;52.294;4.692;2024-02-15T08:10:09;7.78;;;4.97;;
78382;SDS011;67668;52.294;4.692;2024-02-15T08:12:41;8.25;;;4.68;;
78382;SDS011;67668;52.294;4.692;2024-02-15T08:15:08;7.45;;;4.30;;
78382;SDS011;67668;52.294;4.692;2024-02-15T08:17:40;6.10;;;4.15;;
78382;SDS011;67668;52.294;4.692;2024-02-15T08:20:12;8.02;;;4.47;;
78382;SDS011;67668;52.294;4.692;2024-02-15T08:22:38;5.57;;;3.83;;
78382;SDS011;67668;52.294;4.692;2024-02-15T08:25:08;5.85;;;4.00;;
78382;SDS011;67668;52.294;4.692;2024-02-15T08:27:36;4.88;;;3.47;;
78382;SDS011;67668;52.294;4.692;2024-02-15T08:30:09;5.20;;;3.88;;
78382;SDS011;67668;52.294;4.692;2024-02-15T08:32:36;9.75;;;4.03;;
78382;SDS011;67668;52.294;4.692;2024-02-15T08:35:06;6.10;;;3.55;;
78382;SDS011;67668;52.294;4.692;2024-02-15T08:37:34;4.85;;;3.72;;
78382;SDS011;67668;52.294;4.692;2024-02-15T08:40:01;5.18;;;3.42;;
78382;SDS011;67668;52.294;4.692;2024-02-15T08:42:28;5.85;;;3.95;;
78382;SDS011;67668;52.294;4.692;2024-02-15T08:44:57;5.87;;;4.10;;
78382;SDS011;67668;52.294;4.692;2024-02-15T08:47:24;7.05;;;4.22;;
78382;SDS011;67668;52.294;4.692;2024-02-15T08:49:49;12.57;;;4.23;;
78382;SDS011;67668;52.294;4.692;2024-02-15T08:52:15;7.90;;;4.63;;
78382;SDS011;67668;52.294;4.692;2024-02-15T08:54:43;7.75;;;4.53;;
78382;SDS011;67668;52.294;4.692;2024-02-15T08:57:08;6.40;;;4.07;;
78382;SDS011;67668;52.294;4.692;2024-02-15T08:59:33;6.13;;;3.70;;
78382;SDS011;67668;52.294;4.692;2024-02-15T09:01:59;7.00;;;3.90;;
78382;SDS011;67668;52.294;4.692;2024-02-15T09:04:25;7.95;;;4.68;;
78382;SDS011;67668;52.294;4.692;2024-02-15T09:06:51;7.70;;;4.45;;
78382;SDS011;67668;52.294;4.692;2024-02-15T09:09:17;10.30;;;5.03;;
78382;SDS011;67668;52.294;4.692;2024-02-15T09:11:42;8.20;;;5.57;;
78382;SDS011;67668;52.294;4.692;2024-02-15T09:14:08;7.88;;;4.50;;
78382;SDS011;67668;52.294;4.692;2024-02-15T09:16:36;8.90;;;5.28;;
78382;SDS011;67668;52.294;4.692;2024-02-15T09:19:01;9.57;;;5.53;;
78382;SDS011;67668;52.294;4.692;2024-02-15T09:21:27;9.68;;;5.55;;
78382;SDS011;67668;52.294;4.692;2024-02-15T09:23:54;9.73;;;6.00;;
78382;SDS011;67668;52.294;4.692;2024-02-15T09:26:19;9.77;;;5.10;;
78382;SDS011;67668;52.294;4.692;2024-02-15T09:28:45;12.07;;;5.55;;
78382;SDS011;67668;52.294;4.692;2024-02-15T09:31:13;7.68;;;5.82;;
78382;SDS011;67668;52.294;4.692;2024-02-15T09:33:39;9.77;;;6.32;;
78382;SDS011;67668;52.294;4.692;2024-02-15T09:36:05;9.60;;;5.97;;
78382;SDS011;67668;52.294;4.692;2024-02-15T09:38:30;13.80;;;7.85;;
78382;SDS011;67668;52.294;4.692;2024-02-15T09:40:56;11.30;;;7.27;;
78382;SDS011;67668;52.294;4.692;2024-02-15T09:43:21;15.50;;;7.97;;
78382;SDS011;67668;52.294;4.692;2024-02-15T09:45:51;14.30;;;7.80;;
78382;SDS011;67668;52.294;4.692;2024-02-15T09:48:17;11.77;;;7.75;;
78382;SDS011;67668;52.294;4.692;2024-02-15T09:50:43;19.17;;;8.35;;
78382;SDS011;67668;52.294;4.692;2024-02-15T09:53:11;17.48;;;8.95;;
78382;SDS011;67668;52.294;4.692;2024-02-15T09:55:40;16.15;;;8.40;;
78382;SDS011;67668;52.294;4.692;2024-02-15T09:58:08;19.70;;;9.20;;
78382;SDS011;67668;52.294;4.692;2024-02-15T10:00:34;16.40;;;8.73;;
78382;SDS011;67668;52.294;4.692;2024-02-15T10:03:00;23.75;;;9.95;;
78382;SDS011;67668;52.294;4.692;2024-02-15T10:05:30;16.63;;;9.73;;
78382;SDS011;67668;52.294;4.692;2024-02-15T10:07:56;21.55;;;9.75;;
78382;SDS011;67668;52.294;4.692;2024-02-15T10:10:22;17.20;;;9.60;;
78382;SDS011;67668;52.294;4.692;2024-02-15T10:12:50;12.15;;;8.40;;
78382;SDS011;67668;52.294;4.692;2024-02-15T10:20:28;13.85;;;7.38;;
78382;SDS011;67668;52.294;4.692;2024-02-15T10:25:27;14.25;;;8.13;;
78382;SDS011;67668;52.294;4.692;2024-02-15T10:28:03;16.30;;;9.10;;
78382;SDS011;67668;52.294;4.692;2024-02-15T10:30:33;22.85;;;9.65;;
78382;SDS011;67668;52.294;4.692;2024-02-15T10:32:59;15.77;;;7.45;;
78382;SDS011;67668;52.294;4.692;2024-02-15T10:35:24;17.58;;;8.90;;
78382;SDS011;67668;52.294;4.692;2024-02-15T10:37:50;16.17;;;8.48;;
78382;SDS011;67668;52.294;4.692;2024-02-15T10:40:19;20.95;;;9.80;;
78382;SDS011;67668;52.294;4.692;2024-02-15T10:42:48;13.93;;;9.02;;
78382;SDS011;67668;52.294;4.692;2024-02-15T10:47:44;13.47;;;8.50;;
78382;SDS011;67668;52.294;4.692;2024-02-15T10:50:11;13.68;;;8.63;;
78382;SDS011;67668;52.294;4.692;2024-02-15T10:52:37;14.10;;;9.13;;
78382;SDS011;67668;52.294;4.692;2024-02-15T10:55:10;15.27;;;8.85;;
78382;SDS011;67668;52.294;4.692;2024-02-15T10:57:39;15.60;;;9.73;;
78382;SDS011;67668;52.294;4.692;2024-02-15T11:00:10;16.70;;;9.55;;
78382;SDS011;67668;52.294;4.692;2024-02-15T11:03:01;14.40;;;8.30;;
78382;SDS011;67668;52.294;4.692;2024-02-15T11:05:31;18.02;;;8.85;;
78382;SDS011;67668;52.294;4.692;2024-02-15T11:07:59;17.63;;;8.25;;
78382;SDS011;67668;52.294;4.692;2024-02-15T11:10:29;12.65;;;9.27;;
78382;SDS011;67668;52.294;4.692;2024-02-15T11:12:55;20.40;;;10.80;;
78382;SDS011;67668;52.294;4.692;2024-02-15T11:18:04;20.50;;;9.25;;
78382;SDS011;67668;52.294;4.692;2024-02-15T11:22:59;19.00;;;8.40;;
78382;SDS011;67668;52.294;4.692;2024-02-15T11:25:32;13.15;;;8.98;;
78382;SDS011;67668;52.294;4.692;2024-02-15T11:30:47;17.92;;;8.68;;
78382;SDS011;67668;52.294;4.692;2024-02-15T11:36:10;17.42;;;8.93;;
78382;SDS011;67668;52.294;4.692;2024-02-15T11:38:37;18.35;;;8.90;;
78382;SDS011;67668;52.294;4.692;2024-02-15T11:41:08;15.13;;;8.68;;
78382;SDS011;67668;52.294;4.692;2024-02-15T11:46:21;19.83;;;9.35;;
78382;SDS011;67668;52.294;4.692;2024-02-15T11:48:49;19.23;;;8.50;;
78382;SDS011;67668;52.294;4.692;2024-02-15T11:51:28;15.30;;;8.38;;
78382;SDS011;67668;52.294;4.692;2024-02-15T11:59:16;14.30;;;7.53;;
78382;SDS011;67668;52.294;4.692;2024-02-15T12:01:56;14.35;;;6.50;;
78382;SDS011;67668;52.294;4.692;2024-02-15T12:04:41;11.25;;;6.15;;
78382;SDS011;67668;52.294;4.692;2024-02-15T12:10:16;9.27;;;5.30;;
78382;SDS011;67668;52.294;4.692;2024-02-15T12:13:03;14.52;;;5.75;;
78382;SDS011;67668;52.294;4.692;2024-02-15T12:16:00;8.38;;;4.97;;
78382;SDS011;67668;52.294;4.692;2024-02-15T12:18:44;12.05;;;5.60;;
78382;SDS011;67668;52.294;4.692;2024-02-15T12:21:23;13.23;;;5.38;;
78382;SDS011;67668;52.294;4.692;2024-02-15T12:23:51;11.15;;;5.55;;
78382;SDS011;67668;52.294;4.692;2024-02-15T12:26:20;8.43;;;5.18;;
78382;SDS011;67668;52.294;4.692;2024-02-15T12:28:52;9.52;;;5.38;;
78382;SDS011;67668;52.294;4.692;2024-02-15T12:31:21;7.03;;;5.03;;
78382;SDS011;67668;52.294;4.692;2024-02-15T12:33:58;14.10;;;5.75;;
78382;SDS011;67668;52.294;4.692;2024-02-15T12:39:00;8.93;;;5.13;;
78382;SDS011;67668;52.294;4.692;2024-02-15T12:41:27;8.35;;;5.85;;
78382;SDS011;67668;52.294;4.692;2024-02-15T12:43:53;14.65;;;5.90;;
78382;SDS011;67668;52.294;4.692;2024-02-15T12:46:21;11.18;;;5.72;;
78382;SDS011;67668;52.294;4.692;2024-02-15T12:48:47;8.93;;;5.07;;
78382;SDS011;67668;52.294;4.692;2024-02-15T12:51:13;11.13;;;6.03;;
78382;SDS011;67668;52.294;4.692;2024-02-15T12:53:39;6.55;;;4.88;;
78382;SDS011;67668;52.294;4.692;2024-02-15T12:56:06;11.23;;;6.13;;
78382;SDS011;67668;52.294;4.692;2024-02-15T12:58:34;7.97;;;4.82;;
78382;SDS011;67668;52.294;4.692;2024-02-15T13:00:59;11.00;;;6.65;;
78382;SDS011;67668;52.294;4.692;2024-02-15T13:03:26;11.25;;;6.15;;
78382;SDS011;67668;52.294;4.692;2024-02-15T13:05:52;12.70;;;5.20;;
78382;SDS011;67668;52.294;4.692;2024-02-15T13:08:17;10.25;;;5.13;;
78382;SDS011;67668;52.294;4.692;2024-02-15T13:10:44;6.90;;;5.32;;
78382;SDS011;67668;52.294;4.692;2024-02-15T13:13:10;9.82;;;5.40;;
78382;SDS011;67668;52.294;4.692;2024-02-15T13:15:36;6.72;;;4.45;;
78382;SDS011;67668;52.294;4.692;2024-02-15T13:18:02;7.97;;;4.15;;
78382;SDS011;67668;52.294;4.692;2024-02-15T13:20:34;6.57;;;2.97;;
78382;SDS011;67668;52.294;4.692;2024-02-15T13:23:05;4.68;;;3.25;;
78382;SDS011;67668;52.294;4.692;2024-02-15T13:25:40;3.58;;;2.58;;
78382;SDS011;67668;52.294;4.692;2024-02-15T13:28:08;4.55;;;3.05;;
78382;SDS011;67668;52.294;4.692;2024-02-15T13:30:35;4.50;;;2.50;;
78382;SDS011;67668;52.294;4.692;2024-02-15T13:33:01;5.35;;;2.40;;
78382;SDS011;67668;52.294;4.692;2024-02-15T13:35:27;5.72;;;2.83;;
78382;SDS011;67668;52.294;4.692;2024-02-15T13:37:53;6.13;;;2.85;;
78382;SDS011;67668;52.294;4.692;2024-02-15T13:40:23;5.30;;;2.53;;
78382;SDS011;67668;52.294;4.692;2024-02-15T13:42:51;5.38;;;2.65;;
78382;SDS011;67668;52.294;4.692;2024-02-15T13:45:22;5.15;;;2.58;;
78382;SDS011;67668;52.294;4.692;2024-02-15T13:47:51;7.20;;;3.35;;
78382;SDS011;67668;52.294;4.692;2024-02-15T13:50:18;6.75;;;2.78;;
78382;SDS011;67668;52.294;4.692;2024-02-15T13:52:44;6.82;;;2.85;;
78382;SDS011;67668;52.294;4.692;2024-02-15T13:55:14;7.97;;;2.90;;
78382;SDS011;67668;52.294;4.692;2024-02-15T13:57:40;7.63;;;2.55;;
78382;SDS011;67668;52.294;4.692;2024-02-15T14:00:07;6.03;;;2.45;;
78382;SDS011;67668;52.294;4.692;2024-02-15T14:02:38;7.78;;;2.75;;
78382;SDS011;67668;52.294;4.692;2024-02-15T14:05:04;6.70;;;2.90;;
78382;SDS011;67668;52.294;4.692;2024-02-15T14:07:33;6.20;;;3.05;;
78382;SDS011;67668;52.294;4.692;2024-02-15T14:10:00;5.43;;;2.97;;
78382;SDS011;67668;52.294;4.692;2024-02-15T14:12:27;7.30;;;3.50;;
78382;SDS011;67668;52.294;4.692;2024-02-15T14:14:53;8.13;;;4.15;;
78382;SDS011;67668;52.294;4.692;2024-02-15T14:17:18;7.00;;;3.27;;
78382;SDS011;67668;52.294;4.692;2024-02-15T14:19:45;5.55;;;3.58;;
78382;SDS011;67668;52.294;4.692;2024-02-15T14:22:10;7.50;;;3.20;;
78382;SDS011;67668;52.294;4.692;2024-02-15T14:24:41;5.97;;;3.42;;
78382;SDS011;67668;52.294;4.692;2024-02-15T14:27:09;4.20;;;2.70;;
78382;SDS011;67668;52.294;4.692;2024-02-15T14:29:36;6.90;;;3.40;;
78382;SDS011;67668;52.294;4.692;2024-02-15T14:32:06;10.52;;;5.05;;
78382;SDS011;67668;52.294;4.692;2024-02-15T14:34:49;6.65;;;3.45;;
78382;SDS011;67668;52.294;4.692;2024-02-15T14:37:16;8.93;;;3.45;;
78382;SDS011;67668;52.294;4.692;2024-02-15T14:39:42;5.80;;;2.92;;
78382;SDS011;67668;52.294;4.692;2024-02-15T14:42:08;8.15;;;4.15;;
78382;SDS011;67668;52.294;4.692;2024-02-15T14:44:33;7.40;;;3.50;;
78382;SDS011;67668;52.294;4.692;2024-02-15T14:47:01;5.63;;;2.70;;
78382;SDS011;67668;52.294;4.692;2024-02-15T14:49:26;7.27;;;2.83;;
78382;SDS011;67668;52.294;4.692;2024-02-15T14:51:52;6.63;;;2.38;;
78382;SDS011;67668;52.294;4.692;2024-02-15T14:54:17;7.50;;;2.47;;
78382;SDS011;67668;52.294;4.692;2024-02-15T14:56:44;9.88;;;2.63;;
78382;SDS011;67668;52.294;4.692;2024-02-15T14:59:09;5.60;;;2.13;;
78382;SDS011;67668;52.294;4.692;2024-02-15T15:01:36;10.93;;;1.95;;
78382;SDS011;67668;52.294;4.692;2024-02-15T15:04:02;9.77;;;2.28;;
78382;SDS011;67668;52.294;4.692;2024-02-15T15:06:30;7.10;;;2.42;;
78382;SDS011;67668;52.294;4.692;2024-02-15T15:09:14;7.53;;;2.28;;
78382;SDS011;67668;52.294;4.692;2024-02-15T15:11:58;6.85;;;1.80;;
78382;SDS011;67668;52.294;4.692;2024-02-15T15:14:42;5.60;;;2.40;;
78382;SDS011;67668;52.294;4.692;2024-02-15T15:17:10;4.28;;;2.00;;
78382;SDS011;67668;52.294;4.692;2024-02-15T15:19:37;7.38;;;2.55;;